createdAt,value
2022-12-11T00:01:01.295Z,64.50
2022-12-11T00:03:29.696Z,64.40
2022-12-11T00:05:57.803Z,64.40
2022-12-11T00:08:27.343Z,64.30
2022-12-11T00:10:55.533Z,64.30
2022-12-11T00:13:23.554Z,64.30
2022-12-11T00:15:51.623Z,64.20
2022-12-11T00:18:19.707Z,64.30
2022-12-11T00:20:47.825Z,64.30
2022-12-11T00:23:15.880Z,64.30
2022-12-11T00:25:46.249Z,64.40
2022-12-11T00:28:16.665Z,64.50
2022-12-11T00:30:44.722Z,64.50
2022-12-11T00:33:13.848Z,64.60
2022-12-11T00:35:43.348Z,64.70
2022-12-11T00:38:16.508Z,64.70
2022-12-11T00:40:46.112Z,64.80
2022-12-11T00:43:14.478Z,64.80
2022-12-11T00:45:43.879Z,64.80
2022-12-11T00:48:12.304Z,65.00
2022-12-11T00:50:41.068Z,65.10
2022-12-11T00:53:09.415Z,65.00
2022-12-11T00:55:39.522Z,65.10
2022-12-11T00:58:09.794Z,65.10
2022-12-11T01:00:38.327Z,64.90
2022-12-11T01:03:07.156Z,64.90
2022-12-11T01:05:37.624Z,64.90
2022-12-11T01:08:05.983Z,64.80
2022-12-11T01:10:34.555Z,64.70
2022-12-11T01:13:05.025Z,64.70
2022-12-11T01:15:41.182Z,64.60
2022-12-11T01:18:10.638Z,64.50
2022-12-11T01:20:40.743Z,64.50
2022-12-11T01:23:09.343Z,64.60
2022-12-11T01:25:39.141Z,64.60
2022-12-11T01:28:07.600Z,64.50
2022-12-11T01:30:37.584Z,64.40
2022-12-11T01:33:05.732Z,64.30
2022-12-11T01:35:33.971Z,64.20
2022-12-11T01:38:02.869Z,64.20
2022-12-11T01:40:31.214Z,64.10
2022-12-11T01:42:59.288Z,64.10
2022-12-11T01:45:33.246Z,64.10
2022-12-11T01:48:10.563Z,64.00
2022-12-11T01:50:45.030Z,64.00
2022-12-11T01:53:17.905Z,63.90
2022-12-11T01:55:47.496Z,63.90
2022-12-11T01:58:17.307Z,63.80
2022-12-11T02:00:45.381Z,63.80
2022-12-11T02:03:15.002Z,63.70
2022-12-11T02:05:43.137Z,63.70
2022-12-11T02:08:11.486Z,63.70
2022-12-11T02:10:54.684Z,63.70
2022-12-11T02:13:29.474Z,63.70
2022-12-11T02:16:03.699Z,63.80
2022-12-11T02:18:40.107Z,63.80
2022-12-11T02:21:13.830Z,63.80
2022-12-11T02:24:09.320Z,63.80
2022-12-11T02:26:58.758Z,63.70
2022-12-11T02:29:36.059Z,63.70
2022-12-11T02:32:10.154Z,63.70
2022-12-11T02:34:42.773Z,63.60
2022-12-11T02:37:15.410Z,63.60
2022-12-11T02:39:46.255Z,63.50
2022-12-11T02:42:16.592Z,63.50
2022-12-11T02:44:48.254Z,63.50
2022-12-11T02:47:19.301Z,63.40
2022-12-11T02:49:51.271Z,63.30
2022-12-11T02:52:21.369Z,63.40
2022-12-11T02:54:51.540Z,63.50
2022-12-11T02:57:25.234Z,63.50
2022-12-11T02:59:54.986Z,63.60
2022-12-11T03:02:23.101Z,63.70
2022-12-11T03:04:51.303Z,63.70
2022-12-11T03:07:25.446Z,63.70
2022-12-11T03:09:54.287Z,63.70
2022-12-11T03:12:25.074Z,63.70
2022-12-11T03:14:55.060Z,63.60
2022-12-11T03:17:26.191Z,63.70
2022-12-11T03:20:00.928Z,63.70
2022-12-11T03:22:38.945Z,63.70
2022-12-11T03:25:11.687Z,63.70
2022-12-11T03:27:46.128Z,63.70
2022-12-11T03:30:18.832Z,63.70
2022-12-11T03:32:51.303Z,63.80
2022-12-11T03:35:24.079Z,63.70
2022-12-11T03:37:53.137Z,63.70
2022-12-11T03:40:23.815Z,63.70
2022-12-11T03:42:53.750Z,63.80
2022-12-11T03:45:25.898Z,63.90
2022-12-11T03:47:56.413Z,63.90
2022-12-11T03:50:25.537Z,64.00
2022-12-11T03:52:54.900Z,64.00
2022-12-11T03:55:24.044Z,64.00
2022-12-11T03:57:52.137Z,64.00
2022-12-11T04:00:24.203Z,63.90
2022-12-11T04:03:12.669Z,64.00
2022-12-11T04:05:41.798Z,63.80
2022-12-11T04:08:09.946Z,63.80
2022-12-11T04:10:38.210Z,63.70
2022-12-11T04:13:06.263Z,63.70
2022-12-11T04:15:35.129Z,63.70
2022-12-11T04:18:20.702Z,63.80
2022-12-11T04:21:06.393Z,63.90
2022-12-11T04:23:51.623Z,63.90
2022-12-11T04:26:21.632Z,63.90
2022-12-11T04:28:50.449Z,63.90
2022-12-11T04:31:22.119Z,64.00
2022-12-11T04:33:50.452Z,64.10
2022-12-11T04:36:18.629Z,64.10
2022-12-11T04:38:46.652Z,64.00
2022-12-11T04:41:17.106Z,64.10
2022-12-11T04:43:46.152Z,64.20
2022-12-11T04:46:15.994Z,64.30
2022-12-11T04:48:46.048Z,64.30
2022-12-11T04:51:14.533Z,64.20
2022-12-11T04:53:42.797Z,64.20
2022-12-11T04:56:13.373Z,64.20
2022-12-11T04:58:42.854Z,64.20
2022-12-11T05:01:11.302Z,64.20
2022-12-11T05:03:39.582Z,64.20
2022-12-11T05:06:10.376Z,64.20
2022-12-11T05:08:40.459Z,64.10
2022-12-11T05:11:10.117Z,64.20
2022-12-11T05:13:38.751Z,64.20
2022-12-11T05:16:07.852Z,64.30
2022-12-11T05:18:36.175Z,64.30
2022-12-11T05:21:06.353Z,64.30
2022-12-11T05:23:36.105Z,64.30
2022-12-11T05:26:08.318Z,64.30
2022-12-11T05:28:38.535Z,64.30
2022-12-11T05:31:08.666Z,65.00
2022-12-11T05:33:36.813Z,64.30
2022-12-11T05:36:05.619Z,64.30
2022-12-11T05:38:35.111Z,64.40
2022-12-11T05:41:08.801Z,64.50
2022-12-11T05:43:37.968Z,64.60
2022-12-11T05:46:10.674Z,64.60
2022-12-11T05:48:39.824Z,64.60
2022-12-11T05:51:09.400Z,64.70
2022-12-11T05:53:39.661Z,64.80
2022-12-11T05:56:11.325Z,64.80
2022-12-11T05:58:41.359Z,64.80
2022-12-11T06:01:12.392Z,64.70
2022-12-11T06:03:40.653Z,64.70
2022-12-11T06:06:09.377Z,64.70
2022-12-11T06:08:38.933Z,64.70
2022-12-11T06:11:07.321Z,64.60
2022-12-11T06:13:35.850Z,64.60
2022-12-11T06:16:08.110Z,64.60
2022-12-11T06:18:37.865Z,64.60
2022-12-11T06:21:13.783Z,64.70
2022-12-11T06:23:44.049Z,64.70
2022-12-11T06:26:12.475Z,64.70
2022-12-11T06:28:40.661Z,64.70
2022-12-11T06:31:09.011Z,64.60
2022-12-11T06:33:38.044Z,64.70
2022-12-11T06:36:07.959Z,64.80
2022-12-11T06:38:36.408Z,64.80
2022-12-11T06:41:07.269Z,64.80
2022-12-11T06:43:36.821Z,64.80
2022-12-11T06:46:06.271Z,64.90
2022-12-11T06:48:34.516Z,64.80
2022-12-11T06:51:08.187Z,64.80
2022-12-11T06:53:37.105Z,64.80
2022-12-11T06:56:08.343Z,64.70
2022-12-11T06:58:37.290Z,64.60
2022-12-11T07:01:06.470Z,64.60
2022-12-11T07:03:34.535Z,64.50
2022-12-11T07:06:03.151Z,64.30
2022-12-11T07:08:32.037Z,64.30
2022-12-11T07:11:06.334Z,64.30
2022-12-11T07:13:35.612Z,64.30
2022-12-11T07:16:10.485Z,64.40
2022-12-11T07:18:39.442Z,64.50
2022-12-11T07:21:08.222Z,64.70
2022-12-11T07:23:37.551Z,64.80
2022-12-11T07:26:08.204Z,64.80
2022-12-11T07:28:36.603Z,65.10
2022-12-11T07:31:07.524Z,65.10
2022-12-11T07:33:35.652Z,65.10
2022-12-11T07:36:04.409Z,65.10
2022-12-11T07:38:32.746Z,65.10
2022-12-11T07:41:02.630Z,65.10
2022-12-11T07:43:32.242Z,65.30
2022-12-11T07:46:02.735Z,65.30
2022-12-11T07:48:31.815Z,65.30
2022-12-11T07:51:10.027Z,65.50
2022-12-11T07:53:38.080Z,65.40
2022-12-11T07:56:06.824Z,65.50
2022-12-11T07:58:36.949Z,65.40
2022-12-11T08:01:05.162Z,65.40
2022-12-11T08:03:33.252Z,65.30
2022-12-11T08:06:01.294Z,65.30
2022-12-11T08:08:29.404Z,65.20
2022-12-11T08:10:57.485Z,65.10
2022-12-11T08:13:25.500Z,65.10
2022-12-11T08:15:54.991Z,65.00
2022-12-11T08:18:23.059Z,65.10
2022-12-11T08:20:51.194Z,65.10
2022-12-11T08:23:19.217Z,64.90
2022-12-11T08:25:47.246Z,64.80
2022-12-11T08:28:15.306Z,64.90
2022-12-11T08:30:43.643Z,64.90
2022-12-11T08:33:13.633Z,64.80
2022-12-11T08:35:44.036Z,64.90
2022-12-11T08:38:12.447Z,64.90
2022-12-11T08:40:40.793Z,65.00
2022-12-11T08:43:09.092Z,64.90
2022-12-11T08:45:37.557Z,64.80
2022-12-11T08:48:06.548Z,64.90
2022-12-11T08:50:36.115Z,64.90
2022-12-11T08:53:04.389Z,64.90
2022-12-11T08:55:33.765Z,64.80
2022-12-11T08:58:01.825Z,64.80
2022-12-11T09:00:29.955Z,64.70
2022-12-11T09:02:58.081Z,64.70
2022-12-11T09:05:26.147Z,64.60
2022-12-11T09:07:55.731Z,64.50
2022-12-11T09:10:23.806Z,64.50
2022-12-11T09:12:51.862Z,64.40
2022-12-11T09:15:20.066Z,64.30
2022-12-11T09:17:48.086Z,64.20
2022-12-11T09:20:16.309Z,64.00
2022-12-11T09:22:44.405Z,64.00
2022-12-11T09:25:14.051Z,64.00
2022-12-11T09:27:42.094Z,63.90
2022-12-11T09:30:10.808Z,63.70
2022-12-11T09:32:39.864Z,63.70
2022-12-11T09:35:10.010Z,63.60
2022-12-11T09:37:38.395Z,63.50
2022-12-11T09:40:08.158Z,63.50
2022-12-11T09:42:50.782Z,63.50
2022-12-11T09:45:19.217Z,63.20
2022-12-11T09:47:51.233Z,63.20
2022-12-11T09:50:22.958Z,63.10
2022-12-11T09:53:04.741Z,63.50
2022-12-11T09:55:40.166Z,63.20
2022-12-11T09:58:18.488Z,63.10
2022-12-11T10:00:49.620Z,63.10
2022-12-11T10:03:52.190Z,63.30
2022-12-11T10:06:27.017Z,63.10
2022-12-11T10:09:04.362Z,63.20
2022-12-11T10:11:54.454Z,63.00
2022-12-11T10:14:33.224Z,63.00
2022-12-11T10:17:05.812Z,63.20
2022-12-11T10:19:34.706Z,63.00
2022-12-11T10:22:03.561Z,62.80
2022-12-11T10:27:31.371Z,62.50
2022-12-11T10:30:09.621Z,62.30
2022-12-11T10:32:46.615Z,62.30
2022-12-11T10:35:21.839Z,62.20
2022-12-11T10:37:50.834Z,62.20
2022-12-11T10:40:22.264Z,62.20
2022-12-11T10:42:54.857Z,62.10
2022-12-11T10:45:25.013Z,61.90
2022-12-11T10:48:03.826Z,61.90
2022-12-11T10:50:32.232Z,61.60
2022-12-11T10:53:00.435Z,61.70
2022-12-11T10:55:31.989Z,61.70
2022-12-11T10:58:03.862Z,61.80
2022-12-11T11:00:35.064Z,61.70
2022-12-11T11:03:04.359Z,62.00
2022-12-11T11:05:35.330Z,61.80
2022-12-11T11:08:16.239Z,61.50
2022-12-11T11:10:55.837Z,61.40
2022-12-11T11:13:25.247Z,61.20
2022-12-11T11:16:02.254Z,61.30
2022-12-11T11:18:32.160Z,61.10
2022-12-11T11:21:00.958Z,61.20
2022-12-11T11:23:30.137Z,61.20
2022-12-11T11:26:00.357Z,61.00
2022-12-11T11:28:31.632Z,60.80
2022-12-11T11:31:07.752Z,60.70
2022-12-11T11:33:37.999Z,60.70
2022-12-11T11:36:08.256Z,60.80
2022-12-11T11:38:39.830Z,60.70
2022-12-11T11:41:16.653Z,60.50
2022-12-11T11:43:46.973Z,60.20
2022-12-11T11:46:23.143Z,60.00
2022-12-11T11:49:00.261Z,60.00
2022-12-11T11:51:33.238Z,59.90
2022-12-11T11:54:05.191Z,59.90
2022-12-11T11:56:35.054Z,59.90
2022-12-11T11:59:12.369Z,60.50
2022-12-11T12:01:42.739Z,60.00
2022-12-11T12:04:12.003Z,59.80
2022-12-11T12:06:58.616Z,59.70
2022-12-11T12:09:38.500Z,59.40
2022-12-11T12:12:22.764Z,59.50
2022-12-11T12:15:09.595Z,59.50
2022-12-11T12:17:55.402Z,59.30
2022-12-11T12:20:33.361Z,59.10
2022-12-11T12:23:36.459Z,59.20
2022-12-11T12:26:12.414Z,58.90
2022-12-11T12:28:49.052Z,59.10
2022-12-11T12:31:36.233Z,58.90
2022-12-11T12:34:15.504Z,58.70
2022-12-11T12:36:52.224Z,58.50
2022-12-11T12:39:33.122Z,58.40
2022-12-11T12:42:12.473Z,58.30
2022-12-11T12:44:50.229Z,58.40
2022-12-11T12:47:19.649Z,58.40
2022-12-11T12:49:51.049Z,58.40
2022-12-11T12:52:21.975Z,58.30
2022-12-11T12:55:12.962Z,58.30
2022-12-11T12:57:44.822Z,58.30
2022-12-11T13:00:13.761Z,58.50
2022-12-11T13:02:50.489Z,58.30
2022-12-11T13:05:24.676Z,58.50
2022-12-11T13:07:56.537Z,58.10
2022-12-11T13:10:26.490Z,58.10
2022-12-11T13:12:54.694Z,58.70
2022-12-11T13:15:40.572Z,58.40
2022-12-11T13:18:35.141Z,58.20
2022-12-11T13:21:25.999Z,58.00
2022-12-11T13:23:54.558Z,58.10
2022-12-11T13:26:30.665Z,58.10
2022-12-11T13:28:59.197Z,57.60
2022-12-11T13:31:36.599Z,57.60
2022-12-11T13:34:17.100Z,57.50
2022-12-11T13:36:50.966Z,57.30
2022-12-11T13:39:21.930Z,57.40
2022-12-11T13:41:53.846Z,57.50
2022-12-11T13:44:24.218Z,57.50
2022-12-11T13:46:54.425Z,58.00
2022-12-11T13:49:25.597Z,57.70
2022-12-11T13:51:57.662Z,57.40
2022-12-11T13:54:26.837Z,57.40
2022-12-11T13:56:57.194Z,57.40
2022-12-11T13:59:30.058Z,57.40
2022-12-11T14:02:05.351Z,57.30
2022-12-11T14:04:35.795Z,57.30
2022-12-11T14:07:08.841Z,57.30
2022-12-11T14:09:41.409Z,57.10
2022-12-11T14:12:17.319Z,57.10
2022-12-11T14:14:49.790Z,57.70
2022-12-11T14:17:25.109Z,57.20
2022-12-11T14:19:54.504Z,57.30
2022-12-11T14:22:26.570Z,57.40
2022-12-11T14:24:57.206Z,57.40
2022-12-11T14:27:26.326Z,57.50
2022-12-11T14:29:55.132Z,57.40
2022-12-11T14:32:31.874Z,57.40
2022-12-11T14:35:01.374Z,57.50
2022-12-11T14:37:31.059Z,57.60
2022-12-11T14:40:02.728Z,57.60
2022-12-11T14:42:33.525Z,57.60
2022-12-11T14:45:07.102Z,57.70
2022-12-11T14:47:40.091Z,57.70
2022-12-11T14:50:11.089Z,57.70
2022-12-11T14:52:45.217Z,57.80
2022-12-11T14:55:19.090Z,57.80
2022-12-11T14:57:49.710Z,57.90
2022-12-11T15:00:26.085Z,57.90
2022-12-11T15:03:02.827Z,57.90
2022-12-11T15:05:37.112Z,61.60
2022-12-11T15:08:25.020Z,67.30
2022-12-11T15:11:05.945Z,66.00
2022-12-11T15:13:35.820Z,61.90
2022-12-11T15:16:04.921Z,59.40
2022-12-11T15:18:37.334Z,57.60
2022-12-11T15:21:09.449Z,56.10
2022-12-11T15:23:51.919Z,55.40
2022-12-11T15:26:20.620Z,54.80
2022-12-11T15:28:48.710Z,54.80
2022-12-11T15:31:26.439Z,54.60
2022-12-11T15:33:54.962Z,54.40
2022-12-11T15:36:27.781Z,54.70
2022-12-11T15:38:57.302Z,54.60
2022-12-11T15:41:26.499Z,54.90
2022-12-11T15:43:58.908Z,55.00
2022-12-11T15:46:27.619Z,55.20
2022-12-11T15:48:57.441Z,55.40
2022-12-11T15:51:27.442Z,55.50
2022-12-11T15:53:56.986Z,55.80
2022-12-11T15:56:27.947Z,55.90
2022-12-11T15:59:06.764Z,56.10
2022-12-11T16:01:35.158Z,56.20
2022-12-11T16:04:05.320Z,56.40
2022-12-11T16:06:34.197Z,56.50
2022-12-11T16:09:05.147Z,56.60
2022-12-11T16:11:33.358Z,56.70
2022-12-11T16:14:04.281Z,56.90
2022-12-11T16:16:33.045Z,57.00
2022-12-11T16:19:01.167Z,57.20
2022-12-11T16:21:29.403Z,57.30
2022-12-11T16:23:57.468Z,57.40
2022-12-11T16:26:27.214Z,57.50
2022-12-11T16:28:55.307Z,57.50
2022-12-11T16:31:23.389Z,57.60
2022-12-11T16:33:51.481Z,57.60
2022-12-11T16:36:20.542Z,57.50
2022-12-11T16:38:53.492Z,57.70
2022-12-11T16:41:22.810Z,57.80
2022-12-11T16:43:52.925Z,57.80
2022-12-11T16:46:22.122Z,57.80
2022-12-11T16:48:50.661Z,58.00
2022-12-11T16:51:19.056Z,58.10
2022-12-11T16:53:47.393Z,58.30
2022-12-11T16:56:15.432Z,58.50
2022-12-11T16:58:43.475Z,58.50
2022-12-11T17:01:13.940Z,58.40
2022-12-11T17:03:43.302Z,58.30
2022-12-11T17:06:13.223Z,58.30
2022-12-11T17:08:42.737Z,58.40
2022-12-11T17:11:13.979Z,58.40
2022-12-11T17:13:42.327Z,58.40
2022-12-11T17:16:18.136Z,58.50
2022-12-11T17:18:46.277Z,58.50
2022-12-11T17:21:17.173Z,58.60
2022-12-11T17:23:45.426Z,58.60
2022-12-11T17:26:13.585Z,58.70
2022-12-11T17:28:41.721Z,58.80
2022-12-11T17:31:16.560Z,58.90
2022-12-11T17:33:44.961Z,59.10
2022-12-11T17:36:15.319Z,59.10
2022-12-11T17:38:43.398Z,59.00
2022-12-11T17:41:18.507Z,59.00
2022-12-11T17:43:48.996Z,59.10
2022-12-11T17:46:19.239Z,59.20
2022-12-11T17:48:48.634Z,59.40
2022-12-11T17:51:21.902Z,59.40
2022-12-11T17:53:50.399Z,59.50
2022-12-11T17:56:18.847Z,59.60
2022-12-11T17:58:46.905Z,59.60
2022-12-11T18:01:15.104Z,59.50
2022-12-11T18:03:44.773Z,59.50
2022-12-11T18:06:15.151Z,59.40
2022-12-11T18:08:44.393Z,59.40
2022-12-11T18:11:14.986Z,59.40
2022-12-11T18:13:43.658Z,59.40
2022-12-11T18:16:14.374Z,59.30
2022-12-11T18:18:44.199Z,59.30
2022-12-11T18:21:15.076Z,59.40
2022-12-11T18:23:43.983Z,59.30
2022-12-11T18:26:14.400Z,59.30
2022-12-11T18:28:42.594Z,59.30
2022-12-11T18:31:11.636Z,59.40
2022-12-11T18:33:41.887Z,59.50
2022-12-11T18:36:13.343Z,59.60
2022-12-11T18:38:43.110Z,59.70
2022-12-11T18:41:13.088Z,59.60
2022-12-11T18:43:41.700Z,59.70
2022-12-11T18:46:12.571Z,59.70
2022-12-11T18:48:40.807Z,59.80
2022-12-11T18:51:10.118Z,59.80
2022-12-11T18:53:41.419Z,60.00
2022-12-11T18:56:12.589Z,60.00
2022-12-11T18:58:41.083Z,60.00
2022-12-11T19:01:10.434Z,60.70
2022-12-11T19:03:38.829Z,60.00
2022-12-11T19:06:09.079Z,60.00
2022-12-11T19:08:37.293Z,60.00
2022-12-11T19:11:07.244Z,60.00
2022-12-11T19:13:36.250Z,60.00
2022-12-11T19:16:04.720Z,60.00
2022-12-11T19:18:32.807Z,60.00
2022-12-11T19:21:08.410Z,60.10
2022-12-11T19:23:37.530Z,60.10
2022-12-11T19:26:11.514Z,60.20
2022-12-11T19:28:40.016Z,60.30
2022-12-11T19:31:11.290Z,60.40
2022-12-11T19:33:39.813Z,60.40
2022-12-11T19:36:10.382Z,60.50
2022-12-11T19:38:38.480Z,60.60
2022-12-11T19:41:09.330Z,60.70
2022-12-11T19:43:37.812Z,60.70
2022-12-11T19:46:07.982Z,60.80
2022-12-11T19:48:37.487Z,60.90
2022-12-11T19:51:06.620Z,61.00
2022-12-11T19:53:35.245Z,61.00
2022-12-11T19:56:04.027Z,61.00
2022-12-11T19:58:33.980Z,61.20
2022-12-11T20:01:02.802Z,61.20
2022-12-11T20:03:31.683Z,61.30
2022-12-11T20:06:04.253Z,61.40
2022-12-11T20:08:47.941Z,61.50
2022-12-11T20:11:19.628Z,61.60
2022-12-11T20:13:49.791Z,61.70
2022-12-11T20:16:28.860Z,61.70
2022-12-11T20:19:08.328Z,61.80
2022-12-11T20:21:36.421Z,61.90
2022-12-11T20:24:04.771Z,62.00
2022-12-11T20:26:35.980Z,62.10
2022-12-11T20:29:07.317Z,62.10
2022-12-11T20:31:36.540Z,62.20
2022-12-11T20:34:05.824Z,62.20
2022-12-11T20:36:33.929Z,62.30
2022-12-11T20:39:02.049Z,62.30
2022-12-11T20:41:30.168Z,62.40
2022-12-11T20:43:58.302Z,62.50
2022-12-11T20:46:28.889Z,62.60
2022-12-11T20:48:58.755Z,62.70
2022-12-11T20:51:27.998Z,62.70
2022-12-11T20:53:59.273Z,62.70
2022-12-11T20:56:29.864Z,62.80
2022-12-11T20:58:59.063Z,62.90
2022-12-11T21:01:31.842Z,62.90
2022-12-11T21:04:00.717Z,62.90
2022-12-11T21:06:31.623Z,62.90
2022-12-11T21:09:00.983Z,63.10
2022-12-11T21:11:29.305Z,63.20
2022-12-11T21:13:57.673Z,63.20
2022-12-11T21:16:26.173Z,63.40
2022-12-11T21:18:56.192Z,63.40
2022-12-11T21:21:24.852Z,63.50
2022-12-11T21:23:53.164Z,63.50
2022-12-11T21:26:21.775Z,63.60
2022-12-11T21:28:50.009Z,63.70
2022-12-11T21:31:20.463Z,63.60
2022-12-11T21:33:49.330Z,63.70
2022-12-11T21:36:19.265Z,63.80
2022-12-11T21:38:47.615Z,63.70
2022-12-11T21:41:18.025Z,63.70
2022-12-11T21:44:40.889Z,63.70
2022-12-11T21:46:35.630Z,63.70
2022-12-11T21:49:03.801Z,63.60
2022-12-11T21:51:38.553Z,63.60
2022-12-11T21:54:10.221Z,63.70
2022-12-11T21:56:38.314Z,63.70
2022-12-11T21:59:06.621Z,63.80
2022-12-11T22:01:38.364Z,63.90
2022-12-11T22:04:06.911Z,64.00
2022-12-11T22:06:36.670Z,64.00
2022-12-11T22:09:05.430Z,64.10
2022-12-11T22:11:34.710Z,64.10
2022-12-11T22:14:03.161Z,64.20
2022-12-11T22:16:31.869Z,64.20
2022-12-11T22:18:59.965Z,64.20
2022-12-11T22:21:28.054Z,64.20
2022-12-11T22:23:57.575Z,64.20
2022-12-11T22:26:27.706Z,64.30
2022-12-11T22:28:56.818Z,64.20
2022-12-11T22:31:27.865Z,64.20
2022-12-11T22:33:56.488Z,64.30
2022-12-11T22:36:25.868Z,64.40
2022-12-11T22:38:54.315Z,64.40
2022-12-11T22:41:26.246Z,64.50
2022-12-11T22:43:54.139Z,64.60
2022-12-11T22:46:24.071Z,64.50
2022-12-11T22:48:53.075Z,64.50
2022-12-11T22:51:21.672Z,64.50
2022-12-11T22:53:49.919Z,64.60
2022-12-11T22:56:18.191Z,64.70
2022-12-11T22:58:47.597Z,64.60
2022-12-11T23:01:17.702Z,64.70
2022-12-11T23:03:45.868Z,64.70
2022-12-11T23:06:16.214Z,64.70
2022-12-11T23:08:44.779Z,64.70
2022-12-11T23:11:15.930Z,64.60
2022-12-11T23:13:44.606Z,64.60
2022-12-11T23:16:14.632Z,64.60
2022-12-11T23:18:43.156Z,64.60
2022-12-11T23:21:11.788Z,64.60
2022-12-11T23:23:40.144Z,64.60
2022-12-11T23:26:09.729Z,64.60
2022-12-11T23:28:38.089Z,64.60
2022-12-11T23:31:06.783Z,64.60
2022-12-11T23:33:36.213Z,64.60
2022-12-11T23:36:05.411Z,64.70
2022-12-11T23:38:33.981Z,64.70
2022-12-11T23:41:03.831Z,64.60
2022-12-11T23:43:31.954Z,64.60
2022-12-11T23:46:00.101Z,64.60
2022-12-11T23:48:31.136Z,64.50
2022-12-11T23:51:02.088Z,64.50
2022-12-11T23:53:30.317Z,64.50
2022-12-11T23:56:03.010Z,64.50
2022-12-11T23:58:31.172Z,64.50
